Mount Holly, New Jersey
Current Conditions -  °F | °C
As of 6:15 PM on Wednesday 26 Nov 2014 (Local Time) from KVAY Reporting Station
Light Rain Light Rain  
Wind Chill: 26°   Ceiling: 700
Heat Index: 35°   Visibility: 3mi
Dew Point: 33°   Wind: 13mph
Humidity: 92%   Direction: 320°NW
Pressure: 29.84"   Gusts: 17mph
Location:  39.99°N, 74.79°W
Report Text: KVAY 262315Z AUTO 32011G15KT 3SM -RA BR OVC007 02/01 A2984 RMK AO2 RAB01SNE01 CIG 005V011 P0001 T00170006
Loading
Personal Weather Stations






























Interactive Weather Map New forecast layout! Learn more

10-Day Weather Forecast

Advertisements
Track Severe Weather on mobile